Terminal Aerodrome Forecast
Issued by NWS Springfield, MO

Home | Current Version | Previous Version | Text Only | Print | Product List | Glossary On
Versions: 1 2 3 4 5 6 7 8 9 10 11 12 13 14 15 16
000
FTUS43 KSGF 260814 AAC
TAFSGF
TAF AMD
KSGF 260814Z 2608/2706 28008KT 4SM SHRA VCTS OVC080CB
     FM261600 34011KT P6SM OVC010
     FM270100 32007KT 4SM -SHRA OVC008
     FM270300 31008KT P6SM -SHRA OVC015=

USA.gov is the U.S. government's official web portal to all federal, state and local government web resources and services.